sensor_id;sensor_type;location;lat;lon;timestamp;P1;durP1;ratioP1;P2;durP2;ratioP2
50379;SDS011;37474;59.468;18.040;2022-08-25T00:00:21;3.77;;;1.50;;
50379;SDS011;37474;59.468;18.040;2022-08-25T00:02:49;2.10;;;1.50;;
50379;SDS011;37474;59.468;18.040;2022-08-25T00:05:24;2.60;;;1.70;;
50379;SDS011;37474;59.468;18.040;2022-08-25T00:07:58;3.97;;;1.80;;
50379;SDS011;37474;59.468;18.040;2022-08-25T00:10:29;2.73;;;1.73;;
50379;SDS011;37474;59.468;18.040;2022-08-25T00:13:00;1.90;;;1.63;;
50379;SDS011;37474;59.468;18.040;2022-08-25T00:15:30;4.83;;;1.93;;
50379;SDS011;37474;59.468;18.040;2022-08-25T00:18:02;4.22;;;2.30;;
50379;SDS011;37474;59.468;18.040;2022-08-25T00:20:47;3.77;;;2.60;;
50379;SDS011;37474;59.468;18.040;2022-08-25T00:23:18;3.00;;;2.70;;
50379;SDS011;37474;59.468;18.040;2022-08-25T00:25:46;4.10;;;2.17;;
50379;SDS011;37474;59.468;18.040;2022-08-25T00:28:19;2.83;;;2.30;;
50379;SDS011;37474;59.468;18.040;2022-08-25T00:30:49;2.77;;;1.90;;
50379;SDS011;37474;59.468;18.040;2022-08-25T00:33:17;2.40;;;1.50;;
50379;SDS011;37474;59.468;18.040;2022-08-25T00:35:48;3.40;;;1.80;;
50379;SDS011;37474;59.468;18.040;2022-08-25T00:38:19;2.77;;;1.80;;
50379;SDS011;37474;59.468;18.040;2022-08-25T00:40:47;2.40;;;2.10;;
50379;SDS011;37474;59.468;18.040;2022-08-25T00:43:42;4.20;;;1.80;;
50379;SDS011;37474;59.468;18.040;2022-08-25T00:46:13;2.90;;;1.80;;
50379;SDS011;37474;59.468;18.040;2022-08-25T00:48:49;1.90;;;1.57;;
50379;SDS011;37474;59.468;18.040;2022-08-25T00:51:21;4.03;;;1.63;;
50379;SDS011;37474;59.468;18.040;2022-08-25T00:53:56;2.43;;;1.60;;
50379;SDS011;37474;59.468;18.040;2022-08-25T00:58:55;4.27;;;1.80;;
50379;SDS011;37474;59.468;18.040;2022-08-25T01:01:27;2.43;;;1.70;;
50379;SDS011;37474;59.468;18.040;2022-08-25T01:03:55;2.92;;;2.10;;
50379;SDS011;37474;59.468;18.040;2022-08-25T01:06:26;2.97;;;2.10;;
50379;SDS011;37474;59.468;18.040;2022-08-25T01:08:58;3.17;;;2.10;;
50379;SDS011;37474;59.468;18.040;2022-08-25T01:11:26;3.10;;;1.73;;
50379;SDS011;37474;59.468;18.040;2022-08-25T01:13:57;4.03;;;1.70;;
50379;SDS011;37474;59.468;18.040;2022-08-25T01:16:30;2.67;;;1.77;;
50379;SDS011;37474;59.468;18.040;2022-08-25T01:19:02;2.10;;;1.90;;
50379;SDS011;37474;59.468;18.040;2022-08-25T01:21:36;2.23;;;1.70;;
50379;SDS011;37474;59.468;18.040;2022-08-25T01:24:08;3.13;;;1.70;;
50379;SDS011;37474;59.468;18.040;2022-08-25T01:26:43;2.63;;;2.10;;
50379;SDS011;37474;59.468;18.040;2022-08-25T01:29:13;2.90;;;1.80;;
50379;SDS011;37474;59.468;18.040;2022-08-25T01:31:54;1.73;;;1.63;;
50379;SDS011;37474;59.468;18.040;2022-08-25T01:34:28;2.10;;;1.73;;
50379;SDS011;37474;59.468;18.040;2022-08-25T01:37:05;2.20;;;1.87;;
50379;SDS011;37474;59.468;18.040;2022-08-25T01:39:39;2.10;;;1.90;;
50379;SDS011;37474;59.468;18.040;2022-08-25T01:42:18;2.73;;;2.20;;
50379;SDS011;37474;59.468;18.040;2022-08-25T01:44:56;3.40;;;2.10;;
50379;SDS011;37474;59.468;18.040;2022-08-25T01:47:26;3.07;;;2.10;;
50379;SDS011;37474;59.468;18.040;2022-08-25T01:49:54;3.45;;;2.15;;
50379;SDS011;37474;59.468;18.040;2022-08-25T01:52:27;3.40;;;1.97;;
50379;SDS011;37474;59.468;18.040;2022-08-25T01:54:56;2.07;;;1.83;;
50379;SDS011;37474;59.468;18.040;2022-08-25T01:57:28;3.28;;;2.30;;
50379;SDS011;37474;59.468;18.040;2022-08-25T01:59:57;4.43;;;1.87;;
50379;SDS011;37474;59.468;18.040;2022-08-25T02:02:28;3.53;;;2.00;;
50379;SDS011;37474;59.468;18.040;2022-08-25T02:05:00;3.87;;;1.70;;
50379;SDS011;37474;59.468;18.040;2022-08-25T02:07:29;3.50;;;2.30;;
50379;SDS011;37474;59.468;18.040;2022-08-25T02:09:59;2.00;;;1.73;;
50379;SDS011;37474;59.468;18.040;2022-08-25T02:12:31;2.60;;;2.00;;
50379;SDS011;37474;59.468;18.040;2022-08-25T02:15:03;3.60;;;2.13;;
50379;SDS011;37474;59.468;18.040;2022-08-25T02:17:35;3.55;;;2.03;;
50379;SDS011;37474;59.468;18.040;2022-08-25T02:20:05;2.40;;;2.08;;
50379;SDS011;37474;59.468;18.040;2022-08-25T02:22:37;2.50;;;2.00;;
50379;SDS011;37474;59.468;18.040;2022-08-25T02:25:08;4.80;;;2.43;;
50379;SDS011;37474;59.468;18.040;2022-08-25T02:30:09;5.22;;;2.60;;
50379;SDS011;37474;59.468;18.040;2022-08-25T02:32:38;3.13;;;2.00;;
50379;SDS011;37474;59.468;18.040;2022-08-25T02:35:10;3.08;;;2.30;;
50379;SDS011;37474;59.468;18.040;2022-08-25T02:37:40;3.10;;;2.07;;
50379;SDS011;37474;59.468;18.040;2022-08-25T02:40:09;2.47;;;2.10;;
50379;SDS011;37474;59.468;18.040;2022-08-25T02:42:41;2.40;;;1.80;;
50379;SDS011;37474;59.468;18.040;2022-08-25T02:45:09;3.58;;;2.10;;
50379;SDS011;37474;59.468;18.040;2022-08-25T02:47:37;3.43;;;1.90;;
50379;SDS011;37474;59.468;18.040;2022-08-25T02:50:10;2.10;;;1.90;;
50379;SDS011;37474;59.468;18.040;2022-08-25T02:52:40;3.73;;;2.07;;
50379;SDS011;37474;59.468;18.040;2022-08-25T02:55:12;4.03;;;2.20;;
50379;SDS011;37474;59.468;18.040;2022-08-25T02:57:40;6.03;;;2.30;;
50379;SDS011;37474;59.468;18.040;2022-08-25T03:00:11;2.93;;;1.70;;
50379;SDS011;37474;59.468;18.040;2022-08-25T03:02:43;2.30;;;2.00;;
50379;SDS011;37474;59.468;18.040;2022-08-25T03:05:13;3.27;;;2.00;;
50379;SDS011;37474;59.468;18.040;2022-08-25T03:10:14;1.92;;;1.77;;
50379;SDS011;37474;59.468;18.040;2022-08-25T03:12:46;3.00;;;1.80;;
50379;SDS011;37474;59.468;18.040;2022-08-25T03:15:14;2.40;;;1.80;;
50379;SDS011;37474;59.468;18.040;2022-08-25T03:17:46;3.63;;;1.80;;
50379;SDS011;37474;59.468;18.040;2022-08-25T03:20:17;3.27;;;1.87;;
50379;SDS011;37474;59.468;18.040;2022-08-25T03:22:47;3.47;;;2.00;;
50379;SDS011;37474;59.468;18.040;2022-08-25T03:25:17;2.40;;;1.93;;
50379;SDS011;37474;59.468;18.040;2022-08-25T03:28:07;2.20;;;2.00;;
50379;SDS011;37474;59.468;18.040;2022-08-25T03:30:36;2.27;;;1.80;;
50379;SDS011;37474;59.468;18.040;2022-08-25T03:33:04;2.20;;;1.90;;
50379;SDS011;37474;59.468;18.040;2022-08-25T03:35:36;4.65;;;1.83;;
50379;SDS011;37474;59.468;18.040;2022-08-25T03:38:07;4.28;;;1.70;;
50379;SDS011;37474;59.468;18.040;2022-08-25T03:40:36;5.53;;;2.07;;
50379;SDS011;37474;59.468;18.040;2022-08-25T03:43:04;3.87;;;1.87;;
50379;SDS011;37474;59.468;18.040;2022-08-25T03:45:38;2.53;;;2.27;;
50379;SDS011;37474;59.468;18.040;2022-08-25T03:48:08;2.50;;;1.90;;
50379;SDS011;37474;59.468;18.040;2022-08-25T03:50:42;3.40;;;2.20;;
50379;SDS011;37474;59.468;18.040;2022-08-25T03:53:20;2.53;;;1.83;;
50379;SDS011;37474;59.468;18.040;2022-08-25T03:55:48;3.33;;;2.03;;
50379;SDS011;37474;59.468;18.040;2022-08-25T03:58:18;3.58;;;1.90;;
50379;SDS011;37474;59.468;18.040;2022-08-25T04:00:48;4.87;;;2.00;;
50379;SDS011;37474;59.468;18.040;2022-08-25T04:03:16;2.35;;;2.00;;
50379;SDS011;37474;59.468;18.040;2022-08-25T04:08:17;4.43;;;1.93;;
50379;SDS011;37474;59.468;18.040;2022-08-25T04:10:50;3.03;;;2.40;;
50379;SDS011;37474;59.468;18.040;2022-08-25T04:13:18;3.80;;;2.00;;
50379;SDS011;37474;59.468;18.040;2022-08-25T04:15:48;2.33;;;1.80;;
50379;SDS011;37474;59.468;18.040;2022-08-25T04:18:18;2.90;;;2.00;;
50379;SDS011;37474;59.468;18.040;2022-08-25T04:20:46;2.13;;;1.93;;
50379;SDS011;37474;59.468;18.040;2022-08-25T04:23:16;2.73;;;1.80;;
50379;SDS011;37474;59.468;18.040;2022-08-25T04:25:47;3.27;;;1.87;;
50379;SDS011;37474;59.468;18.040;2022-08-25T04:28:15;1.90;;;1.70;;
50379;SDS011;37474;59.468;18.040;2022-08-25T04:30:45;2.17;;;1.77;;
50379;SDS011;37474;59.468;18.040;2022-08-25T04:33:17;1.93;;;1.73;;
50379;SDS011;37474;59.468;18.040;2022-08-25T04:35:50;2.43;;;1.70;;
50379;SDS011;37474;59.468;18.040;2022-08-25T04:38:20;1.70;;;1.60;;
50379;SDS011;37474;59.468;18.040;2022-08-25T04:40:55;3.13;;;1.67;;
50379;SDS011;37474;59.468;18.040;2022-08-25T04:43:28;1.60;;;1.48;;
50379;SDS011;37474;59.468;18.040;2022-08-25T04:45:56;2.83;;;1.50;;
50379;SDS011;37474;59.468;18.040;2022-08-25T04:48:27;1.70;;;1.50;;
50379;SDS011;37474;59.468;18.040;2022-08-25T04:50:57;1.73;;;1.20;;
50379;SDS011;37474;59.468;18.040;2022-08-25T04:53:25;3.93;;;1.10;;
50379;SDS011;37474;59.468;18.040;2022-08-25T04:58:30;2.03;;;1.20;;
50379;SDS011;37474;59.468;18.040;2022-08-25T05:01:00;3.63;;;1.20;;
50379;SDS011;37474;59.468;18.040;2022-08-25T05:03:31;2.35;;;1.25;;
50379;SDS011;37474;59.468;18.040;2022-08-25T05:05:59;4.43;;;1.10;;
50379;SDS011;37474;59.468;18.040;2022-08-25T05:08:29;1.20;;;0.80;;
50379;SDS011;37474;59.468;18.040;2022-08-25T05:11:03;1.53;;;0.70;;
50379;SDS011;37474;59.468;18.040;2022-08-25T05:13:33;1.13;;;0.60;;
50379;SDS011;37474;59.468;18.040;2022-08-25T05:18:36;1.60;;;0.60;;
50379;SDS011;37474;59.468;18.040;2022-08-25T05:21:08;1.10;;;0.60;;
50379;SDS011;37474;59.468;18.040;2022-08-25T05:23:38;2.58;;;0.70;;
50379;SDS011;37474;59.468;18.040;2022-08-25T05:26:10;2.45;;;0.70;;
50379;SDS011;37474;59.468;18.040;2022-08-25T05:28:47;1.15;;;0.70;;
50379;SDS011;37474;59.468;18.040;2022-08-25T05:31:19;0.52;;;0.50;;
50379;SDS011;37474;59.468;18.040;2022-08-25T05:33:48;0.98;;;0.70;;
50379;SDS011;37474;59.468;18.040;2022-08-25T05:36:17;1.20;;;0.65;;
50379;SDS011;37474;59.468;18.040;2022-08-25T05:38:50;0.82;;;0.80;;
50379;SDS011;37474;59.468;18.040;2022-08-25T05:41:20;2.78;;;0.93;;
50379;SDS011;37474;59.468;18.040;2022-08-25T05:43:59;1.90;;;1.15;;
50379;SDS011;37474;59.468;18.040;2022-08-25T05:46:27;2.33;;;1.10;;
50379;SDS011;37474;59.468;18.040;2022-08-25T05:48:57;2.75;;;1.02;;
50379;SDS011;37474;59.468;18.040;2022-08-25T05:51:27;1.40;;;0.82;;
50379;SDS011;37474;59.468;18.040;2022-08-25T05:53:55;2.90;;;0.90;;
50379;SDS011;37474;59.468;18.040;2022-08-25T05:56:23;2.38;;;0.80;;
50379;SDS011;37474;59.468;18.040;2022-08-25T05:58:51;1.67;;;0.80;;
50379;SDS011;37474;59.468;18.040;2022-08-25T06:01:24;2.25;;;0.70;;
50379;SDS011;37474;59.468;18.040;2022-08-25T06:06:41;0.88;;;0.77;;
50379;SDS011;37474;59.468;18.040;2022-08-25T06:09:09;1.98;;;0.77;;
50379;SDS011;37474;59.468;18.040;2022-08-25T06:11:41;1.50;;;0.65;;
50379;SDS011;37474;59.468;18.040;2022-08-25T06:14:10;2.55;;;0.70;;
50379;SDS011;37474;59.468;18.040;2022-08-25T06:16:39;2.05;;;0.70;;
50379;SDS011;37474;59.468;18.040;2022-08-25T06:21:36;2.00;;;0.80;;
50379;SDS011;37474;59.468;18.040;2022-08-25T06:24:05;2.42;;;1.00;;
50379;SDS011;37474;59.468;18.040;2022-08-25T06:26:42;2.80;;;1.10;;
50379;SDS011;37474;59.468;18.040;2022-08-25T06:29:10;3.17;;;1.02;;
50379;SDS011;37474;59.468;18.040;2022-08-25T06:31:41;1.73;;;0.85;;
50379;SDS011;37474;59.468;18.040;2022-08-25T06:34:09;1.42;;;0.90;;
50379;SDS011;37474;59.468;18.040;2022-08-25T06:36:37;3.13;;;0.82;;
50379;SDS011;37474;59.468;18.040;2022-08-25T06:39:06;1.75;;;0.70;;
50379;SDS011;37474;59.468;18.040;2022-08-25T06:41:38;1.48;;;0.70;;
50379;SDS011;37474;59.468;18.040;2022-08-25T06:44:06;3.40;;;0.82;;
50379;SDS011;37474;59.468;18.040;2022-08-25T06:46:38;1.33;;;0.68;;
50379;SDS011;37474;59.468;18.040;2022-08-25T06:49:09;2.15;;;0.70;;
50379;SDS011;37474;59.468;18.040;2022-08-25T06:51:37;3.20;;;0.93;;
50379;SDS011;37474;59.468;18.040;2022-08-25T06:54:09;2.92;;;0.88;;
50379;SDS011;37474;59.468;18.040;2022-08-25T06:56:39;2.03;;;0.82;;
50379;SDS011;37474;59.468;18.040;2022-08-25T06:59:08;2.60;;;0.73;;
50379;SDS011;37474;59.468;18.040;2022-08-25T07:01:38;1.73;;;0.80;;
50379;SDS011;37474;59.468;18.040;2022-08-25T07:06:38;1.08;;;0.60;;
50379;SDS011;37474;59.468;18.040;2022-08-25T07:09:11;1.67;;;0.77;;
50379;SDS011;37474;59.468;18.040;2022-08-25T07:11:40;2.13;;;0.68;;
50379;SDS011;37474;59.468;18.040;2022-08-25T07:14:15;1.85;;;1.05;;
50379;SDS011;37474;59.468;18.040;2022-08-25T07:16:44;1.85;;;0.80;;
50379;SDS011;37474;59.468;18.040;2022-08-25T07:19:19;2.90;;;0.90;;
50379;SDS011;37474;59.468;18.040;2022-08-25T07:21:49;1.20;;;0.70;;
50379;SDS011;37474;59.468;18.040;2022-08-25T07:24:20;1.20;;;0.60;;
50379;SDS011;37474;59.468;18.040;2022-08-25T07:26:48;3.47;;;0.80;;
50379;SDS011;37474;59.468;18.040;2022-08-25T07:29:19;1.33;;;0.80;;
50379;SDS011;37474;59.468;18.040;2022-08-25T07:31:58;2.40;;;0.83;;
50379;SDS011;37474;59.468;18.040;2022-08-25T07:37:18;2.50;;;0.50;;
50379;SDS011;37474;59.468;18.040;2022-08-25T07:42:39;3.15;;;0.60;;
50379;SDS011;37474;59.468;18.040;2022-08-25T07:45:10;2.38;;;0.90;;
50379;SDS011;37474;59.468;18.040;2022-08-25T07:47:46;1.85;;;0.70;;
50379;SDS011;37474;59.468;18.040;2022-08-25T07:50:20;2.55;;;0.65;;
50379;SDS011;37474;59.468;18.040;2022-08-25T07:52:49;0.88;;;0.40;;
50379;SDS011;37474;59.468;18.040;2022-08-25T07:55:23;0.50;;;0.30;;
50379;SDS011;37474;59.468;18.040;2022-08-25T07:57:54;2.85;;;0.50;;
50379;SDS011;37474;59.468;18.040;2022-08-25T08:00:27;2.97;;;0.52;;
50379;SDS011;37474;59.468;18.040;2022-08-25T08:03:04;1.00;;;0.40;;
50379;SDS011;37474;59.468;18.040;2022-08-25T08:05:48;1.35;;;0.60;;
50379;SDS011;37474;59.468;18.040;2022-08-25T08:08:18;1.13;;;0.50;;
50379;SDS011;37474;59.468;18.040;2022-08-25T08:10:46;0.90;;;0.43;;
50379;SDS011;37474;59.468;18.040;2022-08-25T08:13:31;1.45;;;0.43;;
50379;SDS011;37474;59.468;18.040;2022-08-25T08:16:07;1.58;;;0.50;;
50379;SDS011;37474;59.468;18.040;2022-08-25T08:18:38;1.48;;;0.50;;
50379;SDS011;37474;59.468;18.040;2022-08-25T08:21:11;1.98;;;0.50;;
50379;SDS011;37474;59.468;18.040;2022-08-25T08:23:47;2.72;;;0.60;;
50379;SDS011;37474;59.468;18.040;2022-08-25T08:26:24;3.83;;;0.80;;
50379;SDS011;37474;59.468;18.040;2022-08-25T08:29:15;3.85;;;0.70;;
50379;SDS011;37474;59.468;18.040;2022-08-25T08:31:49;1.05;;;0.55;;
50379;SDS011;37474;59.468;18.040;2022-08-25T08:36:51;4.75;;;0.50;;
50379;SDS011;37474;59.468;18.040;2022-08-25T08:39:22;1.33;;;0.50;;
50379;SDS011;37474;59.468;18.040;2022-08-25T08:41:54;1.75;;;0.60;;
50379;SDS011;37474;59.468;18.040;2022-08-25T08:44:53;1.48;;;0.50;;
50379;SDS011;37474;59.468;18.040;2022-08-25T08:47:46;1.42;;;0.70;;
50379;SDS011;37474;59.468;18.040;2022-08-25T08:50:28;2.25;;;0.40;;
50379;SDS011;37474;59.468;18.040;2022-08-25T08:53:04;0.88;;;0.35;;
50379;SDS011;37474;59.468;18.040;2022-08-25T08:55:41;2.55;;;0.80;;
50379;SDS011;37474;59.468;18.040;2022-08-25T08:58:21;1.67;;;0.60;;
50379;SDS011;37474;59.468;18.040;2022-08-25T09:00:55;1.38;;;0.50;;
50379;SDS011;37474;59.468;18.040;2022-08-25T09:03:30;1.85;;;0.47;;
50379;SDS011;37474;59.468;18.040;2022-08-25T09:06:06;2.58;;;0.80;;
50379;SDS011;37474;59.468;18.040;2022-08-25T09:08:47;0.90;;;0.60;;
50379;SDS011;37474;59.468;18.040;2022-08-25T09:11:19;1.58;;;0.60;;
50379;SDS011;37474;59.468;18.040;2022-08-25T09:13:59;2.45;;;0.60;;
50379;SDS011;37474;59.468;18.040;2022-08-25T09:16:41;0.93;;;0.50;;
50379;SDS011;37474;59.468;18.040;2022-08-25T09:19:25;3.25;;;0.60;;
50379;SDS011;37474;59.468;18.040;2022-08-25T09:22:17;1.10;;;0.60;;
50379;SDS011;37474;59.468;18.040;2022-08-25T09:25:06;1.67;;;0.50;;
50379;SDS011;37474;59.468;18.040;2022-08-25T09:28:05;0.55;;;0.30;;
50379;SDS011;37474;59.468;18.040;2022-08-25T09:30:39;4.00;;;0.50;;
50379;SDS011;37474;59.468;18.040;2022-08-25T09:33:18;1.85;;;0.63;;
50379;SDS011;37474;59.468;18.040;2022-08-25T09:35:51;1.25;;;0.50;;
50379;SDS011;37474;59.468;18.040;2022-08-25T09:38:23;1.23;;;0.40;;
50379;SDS011;37474;59.468;18.040;2022-08-25T09:40:57;1.63;;;0.40;;
50379;SDS011;37474;59.468;18.040;2022-08-25T09:43:30;3.40;;;0.60;;
50379;SDS011;37474;59.468;18.040;2022-08-25T09:46:08;2.30;;;0.50;;
50379;SDS011;37474;59.468;18.040;2022-08-25T09:48:46;0.80;;;0.57;;
50379;SDS011;37474;59.468;18.040;2022-08-25T09:51:23;3.40;;;0.68;;
50379;SDS011;37474;59.468;18.040;2022-08-25T09:54:15;4.03;;;0.80;;
50379;SDS011;37474;59.468;18.040;2022-08-25T09:56:52;0.95;;;0.40;;
50379;SDS011;37474;59.468;18.040;2022-08-25T09:59:27;0.95;;;0.60;;
50379;SDS011;37474;59.468;18.040;2022-08-25T10:02:02;2.33;;;0.70;;
50379;SDS011;37474;59.468;18.040;2022-08-25T10:04:36;1.40;;;0.50;;
50379;SDS011;37474;59.468;18.040;2022-08-25T10:07:18;4.03;;;0.60;;
50379;SDS011;37474;59.468;18.040;2022-08-25T10:09:55;1.48;;;0.60;;
50379;SDS011;37474;59.468;18.040;2022-08-25T10:12:29;2.22;;;0.50;;
50379;SDS011;37474;59.468;18.040;2022-08-25T10:15:14;0.85;;;0.40;;
50379;SDS011;37474;59.468;18.040;2022-08-25T10:17:56;1.80;;;0.43;;
50379;SDS011;37474;59.468;18.040;2022-08-25T10:20:52;2.63;;;0.60;;
50379;SDS011;37474;59.468;18.040;2022-08-25T10:26:02;3.25;;;0.77;;
50379;SDS011;37474;59.468;18.040;2022-08-25T10:28:40;1.20;;;0.55;;
50379;SDS011;37474;59.468;18.040;2022-08-25T10:31:18;2.58;;;0.50;;
50379;SDS011;37474;59.468;18.040;2022-08-25T10:33:56;2.75;;;0.57;;
50379;SDS011;37474;59.468;18.040;2022-08-25T10:36:37;2.58;;;0.60;;
50379;SDS011;37474;59.468;18.040;2022-08-25T10:39:16;1.08;;;0.50;;
50379;SDS011;37474;59.468;18.040;2022-08-25T10:42:05;2.33;;;0.60;;
50379;SDS011;37474;59.468;18.040;2022-08-25T10:44:55;1.13;;;0.55;;
50379;SDS011;37474;59.468;18.040;2022-08-25T10:51:05;2.67;;;0.70;;
50379;SDS011;37474;59.468;18.040;2022-08-25T10:53:48;1.88;;;0.52;;
50379;SDS011;37474;59.468;18.040;2022-08-25T10:56:23;0.85;;;0.40;;
50379;SDS011;37474;59.468;18.040;2022-08-25T10:59:02;1.83;;;0.50;;
50379;SDS011;37474;59.468;18.040;2022-08-25T11:01:53;3.60;;;0.60;;
50379;SDS011;37474;59.468;18.040;2022-08-25T11:04:47;1.02;;;0.40;;
50379;SDS011;37474;59.468;18.040;2022-08-25T11:07:24;1.20;;;0.50;;
50379;SDS011;37474;59.468;18.040;2022-08-25T11:09:59;1.38;;;0.40;;
50379;SDS011;37474;59.468;18.040;2022-08-25T11:12:35;0.98;;;0.45;;
50379;SDS011;37474;59.468;18.040;2022-08-25T11:15:14;0.60;;;0.30;;
50379;SDS011;37474;59.468;18.040;2022-08-25T11:17:47;0.73;;;0.32;;
50379;SDS011;37474;59.468;18.040;2022-08-25T11:20:26;1.92;;;0.50;;
50379;SDS011;37474;59.468;18.040;2022-08-25T11:23:05;1.85;;;0.40;;
50379;SDS011;37474;59.468;18.040;2022-08-25T11:25:40;1.05;;;0.50;;
50379;SDS011;37474;59.468;18.040;2022-08-25T11:28:11;1.83;;;0.57;;
50379;SDS011;37474;59.468;18.040;2022-08-25T11:30:42;1.90;;;0.45;;
50379;SDS011;37474;59.468;18.040;2022-08-25T11:33:13;1.98;;;0.35;;
50379;SDS011;37474;59.468;18.040;2022-08-25T11:35:47;0.95;;;0.43;;
50379;SDS011;37474;59.468;18.040;2022-08-25T11:38:23;1.63;;;0.50;;
50379;SDS011;37474;59.468;18.040;2022-08-25T11:41:09;3.40;;;0.50;;
50379;SDS011;37474;59.468;18.040;2022-08-25T11:43:54;1.13;;;0.60;;
50379;SDS011;37474;59.468;18.040;2022-08-25T11:46:48;2.22;;;0.65;;
50379;SDS011;37474;59.468;18.040;2022-08-25T11:49:35;2.30;;;0.90;;
50379;SDS011;37474;59.468;18.040;2022-08-25T11:55:17;1.85;;;0.60;;
50379;SDS011;37474;59.468;18.040;2022-08-25T12:00:56;1.73;;;0.50;;
50379;SDS011;37474;59.468;18.040;2022-08-25T12:06:22;2.20;;;0.60;;
50379;SDS011;37474;59.468;18.040;2022-08-25T12:08:53;0.88;;;0.40;;
50379;SDS011;37474;59.468;18.040;2022-08-25T12:11:48;1.20;;;0.50;;
50379;SDS011;37474;59.468;18.040;2022-08-25T12:17:20;2.35;;;0.47;;
50379;SDS011;37474;59.468;18.040;2022-08-25T12:19:55;1.52;;;0.63;;
50379;SDS011;37474;59.468;18.040;2022-08-25T12:25:34;0.82;;;0.50;;
50379;SDS011;37474;59.468;18.040;2022-08-25T12:28:27;0.55;;;0.50;;
50379;SDS011;37474;59.468;18.040;2022-08-25T12:31:05;3.20;;;0.68;;
50379;SDS011;37474;59.468;18.040;2022-08-25T12:33:45;1.33;;;0.50;;
50379;SDS011;37474;59.468;18.040;2022-08-25T12:36:28;2.20;;;0.75;;
50379;SDS011;37474;59.468;18.040;2022-08-25T12:39:10;2.28;;;0.50;;
50379;SDS011;37474;59.468;18.040;2022-08-25T12:41:50;1.92;;;0.50;;
50379;SDS011;37474;59.468;18.040;2022-08-25T12:44:35;3.55;;;0.47;;
50379;SDS011;37474;59.468;18.040;2022-08-25T12:47:23;1.77;;;0.45;;
50379;SDS011;37474;59.468;18.040;2022-08-25T12:53:18;1.08;;;0.52;;
50379;SDS011;37474;59.468;18.040;2022-08-25T12:55:59;3.53;;;0.60;;
50379;SDS011;37474;59.468;18.040;2022-08-25T12:58:34;0.95;;;0.40;;
50379;SDS011;37474;59.468;18.040;2022-08-25T13:01:27;0.93;;;0.50;;
50379;SDS011;37474;59.468;18.040;2022-08-25T13:04:25;2.17;;;0.50;;
50379;SDS011;37474;59.468;18.040;2022-08-25T13:07:09;1.75;;;0.60;;
50379;SDS011;37474;59.468;18.040;2022-08-25T13:12:53;1.73;;;0.47;;
50379;SDS011;37474;59.468;18.040;2022-08-25T13:15:32;3.05;;;0.50;;
50379;SDS011;37474;59.468;18.040;2022-08-25T13:18:16;1.05;;;0.50;;
50379;SDS011;37474;59.468;18.040;2022-08-25T13:20:51;2.28;;;0.40;;
50379;SDS011;37474;59.468;18.040;2022-08-25T13:23:28;1.15;;;0.40;;
50379;SDS011;37474;59.468;18.040;2022-08-25T13:25:59;16.00;;;1.00;;
50379;SDS011;37474;59.468;18.040;2022-08-25T13:28:30;1.27;;;0.50;;
50379;SDS011;37474;59.468;18.040;2022-08-25T13:31:13;1.20;;;0.43;;
50379;SDS011;37474;59.468;18.040;2022-08-25T13:33:50;0.88;;;0.40;;
50379;SDS011;37474;59.468;18.040;2022-08-25T13:36:22;3.47;;;0.63;;
50379;SDS011;37474;59.468;18.040;2022-08-25T13:39:20;1.58;;;0.57;;
50379;SDS011;37474;59.468;18.040;2022-08-25T13:42:12;1.17;;;0.50;;
50379;SDS011;37474;59.468;18.040;2022-08-25T13:44:44;0.95;;;0.50;;
50379;SDS011;37474;59.468;18.040;2022-08-25T13:47:31;0.88;;;0.50;;
50379;SDS011;37474;59.468;18.040;2022-08-25T13:50:14;0.93;;;0.40;;
50379;SDS011;37474;59.468;18.040;2022-08-25T13:53:03;2.75;;;0.55;;
50379;SDS011;37474;59.468;18.040;2022-08-25T13:55:37;2.00;;;0.40;;
50379;SDS011;37474;59.468;18.040;2022-08-25T13:58:18;2.22;;;0.60;;
50379;SDS011;37474;59.468;18.040;2022-08-25T14:01:07;0.90;;;0.40;;
50379;SDS011;37474;59.468;18.040;2022-08-25T14:12:34;0.85;;;0.60;;
50379;SDS011;37474;59.468;18.040;2022-08-25T14:15:08;2.58;;;0.45;;
50379;SDS011;37474;59.468;18.040;2022-08-25T14:17:41;1.65;;;0.52;;
50379;SDS011;37474;59.468;18.040;2022-08-25T14:20:17;0.85;;;0.35;;
50379;SDS011;37474;59.468;18.040;2022-08-25T14:22:52;0.73;;;0.40;;
50379;SDS011;37474;59.468;18.040;2022-08-25T14:25:27;1.67;;;0.47;;
50379;SDS011;37474;59.468;18.040;2022-08-25T14:27:56;0.85;;;0.50;;
50379;SDS011;37474;59.468;18.040;2022-08-25T14:30:34;1.27;;;0.52;;
50379;SDS011;37474;59.468;18.040;2022-08-25T14:33:11;1.48;;;0.60;;
50379;SDS011;37474;59.468;18.040;2022-08-25T14:35:40;2.38;;;0.60;;
50379;SDS011;37474;59.468;18.040;2022-08-25T14:38:12;2.50;;;0.50;;
50379;SDS011;37474;59.468;18.040;2022-08-25T14:40:42;1.95;;;0.55;;
50379;SDS011;37474;59.468;18.040;2022-08-25T14:43:11;0.98;;;0.50;;
50379;SDS011;37474;59.468;18.040;2022-08-25T14:45:42;1.30;;;0.40;;
50379;SDS011;37474;59.468;18.040;2022-08-25T14:48:16;1.80;;;0.57;;
50379;SDS011;37474;59.468;18.040;2022-08-25T14:50:50;1.70;;;0.50;;
50379;SDS011;37474;59.468;18.040;2022-08-25T14:53:18;0.88;;;0.40;;
50379;SDS011;37474;59.468;18.040;2022-08-25T14:55:47;2.88;;;0.50;;
50379;SDS011;37474;59.468;18.040;2022-08-25T14:58:24;1.42;;;0.50;;
50379;SDS011;37474;59.468;18.040;2022-08-25T15:00:59;2.90;;;0.50;;
50379;SDS011;37474;59.468;18.040;2022-08-25T15:03:33;2.13;;;0.68;;
50379;SDS011;37474;59.468;18.040;2022-08-25T15:06:05;4.65;;;0.45;;
50379;SDS011;37474;59.468;18.040;2022-08-25T15:08:38;2.63;;;0.57;;
50379;SDS011;37474;59.468;18.040;2022-08-25T15:11:28;0.63;;;0.40;;
50379;SDS011;37474;59.468;18.040;2022-08-25T15:14:02;5.35;;;0.70;;
50379;SDS011;37474;59.468;18.040;2022-08-25T15:16:37;1.30;;;0.60;;
50379;SDS011;37474;59.468;18.040;2022-08-25T15:19:11;0.88;;;0.40;;
50379;SDS011;37474;59.468;18.040;2022-08-25T15:21:43;1.73;;;0.60;;
50379;SDS011;37474;59.468;18.040;2022-08-25T15:24:13;3.03;;;0.60;;
50379;SDS011;37474;59.468;18.040;2022-08-25T15:26:43;1.38;;;0.65;;
50379;SDS011;37474;59.468;18.040;2022-08-25T15:29:21;1.08;;;0.60;;
50379;SDS011;37474;59.468;18.040;2022-08-25T15:31:49;0.55;;;0.43;;
50379;SDS011;37474;59.468;18.040;2022-08-25T15:34:20;1.63;;;0.60;;
50379;SDS011;37474;59.468;18.040;2022-08-25T15:36:49;1.67;;;0.60;;
50379;SDS011;37474;59.468;18.040;2022-08-25T15:39:17;1.33;;;0.65;;
50379;SDS011;37474;59.468;18.040;2022-08-25T15:44:14;1.25;;;0.80;;
50379;SDS011;37474;59.468;18.040;2022-08-25T15:49:15;3.35;;;0.65;;
50379;SDS011;37474;59.468;18.040;2022-08-25T15:51:50;1.67;;;0.60;;
50379;SDS011;37474;59.468;18.040;2022-08-25T15:54:20;0.88;;;0.60;;
50379;SDS011;37474;59.468;18.040;2022-08-25T15:56:48;2.03;;;0.70;;
50379;SDS011;37474;59.468;18.040;2022-08-25T15:59:17;2.17;;;0.80;;
50379;SDS011;37474;59.468;18.040;2022-08-25T16:01:47;2.13;;;1.00;;
50379;SDS011;37474;59.468;18.040;2022-08-25T16:04:19;1.60;;;0.80;;
50379;SDS011;37474;59.468;18.040;2022-08-25T16:06:50;1.83;;;1.00;;
50379;SDS011;37474;59.468;18.040;2022-08-25T16:09:23;1.70;;;0.90;;
50379;SDS011;37474;59.468;18.040;2022-08-25T16:11:51;2.15;;;0.93;;
50379;SDS011;37474;59.468;18.040;2022-08-25T16:14:26;1.80;;;1.00;;
50379;SDS011;37474;59.468;18.040;2022-08-25T16:16:56;1.33;;;1.00;;
50379;SDS011;37474;59.468;18.040;2022-08-25T16:19:25;1.95;;;1.10;;
50379;SDS011;37474;59.468;18.040;2022-08-25T16:21:56;5.88;;;1.60;;
50379;SDS011;37474;59.468;18.040;2022-08-25T16:24:25;2.45;;;1.67;;
50379;SDS011;37474;59.468;18.040;2022-08-25T16:26:53;1.95;;;1.45;;